createdAt,value
2022-08-05T00:01:48.785Z,5.60
2022-08-05T00:04:18.413Z,5.50
2022-08-05T00:06:47.024Z,5.10
2022-08-05T00:09:15.994Z,5.70
2022-08-05T00:11:55.695Z,5.30
2022-08-05T00:14:31.376Z,5.60
2022-08-05T00:17:01.848Z,5.60
2022-08-05T00:19:33.191Z,5.40
2022-08-05T00:22:04.334Z,5.10
2022-08-05T00:24:32.313Z,5.70
2022-08-05T00:27:04.754Z,4.90
2022-08-05T00:29:38.589Z,5.30
2022-08-05T00:32:13.276Z,5.20
2022-08-05T00:35:04.856Z,4.90
2022-08-05T00:37:50.824Z,5.00
2022-08-05T00:40:28.397Z,4.70
2022-08-05T00:43:02.713Z,5.00
2022-08-05T00:45:42.970Z,5.20
2022-08-05T00:48:15.825Z,5.40
2022-08-05T00:50:47.369Z,5.20
2022-08-05T00:54:00.520Z,5.20
2022-08-05T00:56:07.724Z,5.20
2022-08-05T00:58:37.063Z,4.80
2022-08-05T01:01:08.742Z,5.40
2022-08-05T01:03:39.430Z,4.90
2022-08-05T01:06:14.193Z,5.20
2022-08-05T01:08:44.551Z,5.00
2022-08-05T01:11:37.444Z,4.80
2022-08-05T01:14:15.302Z,5.40
2022-08-05T01:17:03.113Z,4.80
2022-08-05T01:20:30.181Z,4.70
2022-08-05T01:23:45.069Z,5.40
2022-08-05T01:26:33.787Z,4.80
2022-08-05T01:29:13.641Z,5.20
2022-08-05T01:31:51.497Z,5.00
2022-08-05T01:34:28.045Z,4.80
2022-08-05T01:37:24.378Z,5.10
2022-08-05T01:39:55.068Z,4.90
2022-08-05T01:42:30.028Z,5.60
2022-08-05T01:45:02.329Z,4.70
2022-08-05T01:47:39.200Z,5.30
2022-08-05T01:50:15.196Z,5.50
2022-08-05T01:52:50.097Z,4.80
2022-08-05T01:55:22.360Z,5.20
2022-08-05T01:58:12.974Z,5.20
2022-08-05T02:00:49.697Z,4.70
2022-08-05T02:03:32.059Z,5.40
2022-08-05T02:06:33.844Z,5.20
2022-08-05T02:08:58.831Z,5.00
2022-08-05T02:11:37.548Z,4.90
2022-08-05T02:14:15.571Z,4.90
2022-08-05T02:16:52.765Z,5.30
2022-08-05T02:19:34.568Z,5.30
2022-08-05T02:22:25.918Z,4.90
2022-08-05T02:25:08.637Z,4.40
2022-08-05T02:27:59.273Z,5.00
2022-08-05T02:30:38.283Z,5.20
2022-08-05T02:33:24.664Z,5.60
2022-08-05T02:36:13.704Z,5.70
2022-08-05T02:38:53.680Z,5.00
2022-08-05T02:41:28.611Z,5.00
2022-08-05T02:44:12.386Z,5.40
2022-08-05T02:46:53.850Z,5.50
2022-08-05T02:49:42.358Z,5.40
2022-08-05T02:52:29.952Z,4.50
2022-08-05T02:55:05.653Z,4.20
2022-08-05T02:58:10.222Z,5.50
2022-08-05T03:00:29.987Z,4.90
2022-08-05T03:02:59.009Z,5.10
2022-08-05T03:06:55.155Z,5.10
2022-08-05T03:08:17.485Z,5.50
2022-08-05T03:11:54.469Z,6.20
2022-08-05T03:13:51.781Z,5.60
2022-08-05T03:16:31.634Z,5.40
2022-08-05T03:19:01.430Z,5.10
2022-08-05T03:21:41.662Z,5.90
2022-08-05T03:24:20.201Z,5.20
2022-08-05T03:27:00.924Z,5.40
2022-08-05T03:29:45.821Z,5.20
2022-08-05T03:32:19.425Z,5.90
2022-08-05T03:34:51.100Z,5.70
2022-08-05T03:37:21.303Z,5.50
2022-08-05T03:40:01.518Z,5.70
2022-08-05T03:42:32.915Z,5.20
2022-08-05T03:45:21.386Z,5.80
2022-08-05T03:47:51.933Z,5.40
2022-08-05T03:50:33.688Z,5.40
2022-08-05T03:55:00.482Z,5.50
2022-08-05T03:56:30.718Z,5.30
2022-08-05T03:59:09.318Z,5.60
2022-08-05T04:01:42.457Z,5.40
2022-08-05T04:04:16.820Z,6.40
2022-08-05T04:06:51.671Z,5.90
2022-08-05T04:09:26.178Z,5.00
2022-08-05T04:11:56.954Z,5.40
2022-08-05T04:14:30.357Z,5.60
2022-08-05T04:17:00.649Z,5.40
2022-08-05T04:19:29.572Z,5.00
2022-08-05T04:22:08.063Z,5.90
2022-08-05T04:24:44.090Z,5.40
2022-08-05T04:27:14.114Z,5.60
2022-08-05T04:29:43.291Z,5.60
2022-08-05T04:32:11.235Z,5.60
2022-08-05T04:34:42.913Z,5.30
2022-08-05T04:37:11.314Z,5.50
2022-08-05T04:39:40.072Z,5.30
2022-08-05T04:42:09.154Z,5.80
2022-08-05T04:44:37.129Z,5.80
2022-08-05T04:47:09.648Z,5.00
2022-08-05T04:50:01.823Z,5.20
2022-08-05T04:52:28.208Z,5.30
2022-08-05T04:54:57.212Z,5.00
2022-08-05T04:57:29.161Z,5.70
2022-08-05T04:59:58.614Z,4.60
2022-08-05T05:02:37.593Z,5.40
2022-08-05T05:05:26.376Z,4.90
2022-08-05T05:08:14.443Z,4.80
2022-08-05T05:10:56.689Z,4.60
2022-08-05T05:13:24.503Z,4.40
2022-08-05T05:15:57.848Z,4.40
2022-08-05T05:18:33.477Z,5.30
2022-08-05T05:21:03.922Z,4.50
2022-08-05T05:24:02.167Z,4.70
2022-08-05T05:26:28.656Z,4.20
2022-08-05T05:29:02.232Z,4.90
2022-08-05T05:34:02.835Z,4.40
2022-08-05T05:36:31.958Z,5.10
2022-08-05T05:38:59.921Z,4.50
2022-08-05T05:41:40.565Z,3.90
2022-08-05T05:44:35.525Z,5.10
2022-08-05T05:47:04.220Z,4.50
2022-08-05T05:49:33.066Z,5.90
2022-08-05T05:52:06.033Z,4.90
2022-08-05T05:54:50.835Z,4.50
2022-08-05T05:57:20.112Z,4.80
2022-08-05T05:59:48.798Z,5.20
2022-08-05T06:02:17.163Z,4.50
2022-08-05T06:05:07.783Z,4.50
2022-08-05T06:07:41.289Z,4.60
2022-08-05T06:10:11.032Z,4.20
2022-08-05T06:12:42.100Z,4.40
2022-08-05T06:15:16.547Z,4.60
2022-08-05T06:17:53.010Z,4.90
2022-08-05T06:20:21.923Z,4.90
2022-08-05T06:22:49.930Z,5.10
2022-08-05T06:25:24.257Z,4.50
2022-08-05T06:28:10.812Z,4.30
2022-08-05T06:30:40.696Z,4.30
2022-08-05T06:33:10.001Z,4.80
2022-08-05T06:36:08.210Z,4.50
2022-08-05T06:38:35.826Z,4.20
2022-08-05T06:41:08.191Z,4.90
2022-08-05T06:43:57.634Z,4.30
2022-08-05T06:46:30.076Z,4.40
2022-08-05T06:49:01.068Z,4.20
2022-08-05T06:51:31.204Z,4.20
2022-08-05T06:54:01.941Z,4.50
2022-08-05T06:56:33.857Z,4.70
2022-08-05T06:59:09.441Z,4.00
2022-08-05T07:01:42.340Z,3.70
2022-08-05T07:04:10.713Z,4.20
2022-08-05T07:06:42.241Z,4.00
2022-08-05T07:09:09.991Z,3.90
2022-08-05T07:11:39.726Z,4.50
2022-08-05T07:14:29.808Z,4.70
2022-08-05T07:17:58.405Z,5.10
2022-08-05T07:22:42.108Z,4.30
2022-08-05T07:25:54.969Z,4.10
2022-08-05T07:28:04.229Z,4.70
2022-08-05T07:30:39.084Z,4.90
2022-08-05T07:33:16.650Z,7.40
2022-08-05T07:36:02.517Z,5.00
2022-08-05T07:38:43.167Z,4.20
2022-08-05T07:42:13.453Z,5.00
2022-08-05T07:44:14.359Z,4.20
2022-08-05T07:46:49.700Z,4.60
2022-08-05T07:49:20.534Z,4.50
2022-08-05T07:51:53.023Z,4.20
2022-08-05T07:54:31.267Z,4.20
2022-08-05T07:57:17.679Z,3.90
2022-08-05T07:59:51.654Z,5.00
2022-08-05T08:02:31.182Z,4.70
2022-08-05T08:05:17.483Z,4.30
2022-08-05T08:08:00.129Z,4.30
2022-08-05T08:10:29.523Z,4.20
2022-08-05T08:12:58.548Z,4.80
2022-08-05T08:16:33.317Z,4.50
2022-08-05T08:18:14.720Z,4.40
2022-08-05T08:21:03.071Z,4.70
2022-08-05T08:24:01.455Z,4.60
2022-08-05T08:26:26.733Z,4.10
2022-08-05T08:29:29.488Z,4.60
2022-08-05T08:31:50.819Z,5.50
2022-08-05T08:34:30.166Z,5.30
2022-08-05T08:39:37.153Z,4.20
2022-08-05T08:42:34.160Z,4.40
2022-08-05T08:45:17.761Z,4.60
2022-08-05T08:48:10.469Z,4.00
2022-08-05T08:51:04.126Z,4.80
2022-08-05T08:53:38.168Z,4.60
2022-08-05T08:56:12.629Z,4.70
2022-08-05T08:58:48.022Z,5.20
2022-08-05T09:01:19.711Z,4.80
2022-08-05T09:03:55.496Z,4.70
2022-08-05T09:06:29.914Z,4.60
2022-08-05T09:09:01.507Z,5.20
2022-08-05T09:11:51.393Z,4.70
2022-08-05T09:14:57.765Z,4.60
2022-08-05T09:17:15.958Z,4.50
2022-08-05T09:20:05.032Z,4.50
2022-08-05T09:23:37.453Z,4.60
2022-08-05T09:26:21.121Z,4.40
2022-08-05T09:28:55.403Z,4.60
2022-08-05T09:32:39.967Z,7.80
2022-08-05T09:34:13.717Z,6.20
2022-08-05T09:36:54.700Z,4.40
2022-08-05T09:39:39.114Z,4.50
2022-08-05T09:42:23.642Z,5.20
2022-08-05T09:45:03.195Z,4.90
2022-08-05T09:47:55.079Z,4.90
2022-08-05T09:50:37.640Z,4.50
2022-08-05T09:53:06.090Z,4.80
2022-08-05T09:55:57.298Z,5.00
2022-08-05T09:58:29.222Z,4.90
2022-08-05T10:01:02.160Z,4.30
2022-08-05T10:04:00.627Z,4.50
2022-08-05T10:06:29.345Z,4.90
2022-08-05T10:09:27.239Z,4.60
2022-08-05T10:12:31.020Z,4.60
2022-08-05T10:15:21.638Z,4.60
2022-08-05T10:18:17.418Z,4.90
2022-08-05T10:20:54.280Z,4.50
2022-08-05T10:23:56.412Z,5.10
2022-08-05T10:29:02.571Z,4.80
2022-08-05T10:32:53.998Z,5.00
2022-08-05T10:34:25.756Z,4.30
2022-08-05T10:36:59.626Z,4.80
2022-08-05T10:39:59.260Z,4.70
2022-08-05T10:42:32.582Z,4.70
2022-08-05T10:45:21.426Z,4.90
2022-08-05T10:48:31.079Z,4.60
2022-08-05T10:51:22.191Z,4.30
2022-08-05T10:53:50.546Z,4.40
2022-08-05T10:56:25.963Z,4.70
2022-08-05T10:58:53.863Z,4.50
2022-08-05T11:01:55.644Z,4.50
2022-08-05T11:04:26.129Z,4.90
2022-08-05T11:07:01.452Z,5.80
2022-08-05T11:10:09.538Z,5.10
2022-08-05T11:12:38.421Z,5.00
2022-08-05T11:15:19.647Z,4.50
2022-08-05T11:18:00.216Z,4.90
2022-08-05T11:20:41.776Z,4.80
2022-08-05T11:24:03.997Z,5.10
2022-08-05T11:26:34.742Z,4.50
2022-08-05T11:29:13.245Z,5.90
2022-08-05T11:31:56.714Z,5.20
2022-08-05T11:34:51.051Z,5.20
2022-08-05T11:38:30.517Z,5.10
2022-08-05T11:41:35.122Z,4.40
2022-08-05T11:44:06.504Z,4.50
2022-08-05T11:47:09.868Z,5.00
2022-08-05T11:49:28.609Z,4.10
2022-08-05T11:51:57.681Z,4.50
2022-08-05T11:54:34.525Z,4.10
2022-08-05T11:57:07.926Z,4.00
2022-08-05T11:59:50.065Z,4.50
2022-08-05T12:02:30.935Z,4.30
2022-08-05T12:05:07.405Z,4.60
2022-08-05T12:08:03.732Z,4.10
2022-08-05T12:10:43.549Z,4.50
2022-08-05T12:13:27.987Z,4.10
2022-08-05T12:16:14.923Z,4.50
2022-08-05T12:18:49.554Z,3.80
2022-08-05T12:21:39.187Z,4.20
2022-08-05T12:24:11.421Z,4.30
2022-08-05T12:26:44.037Z,4.30
2022-08-05T12:29:17.771Z,4.00
2022-08-05T12:31:54.215Z,3.90
2022-08-05T12:34:31.729Z,4.40
2022-08-05T12:37:22.781Z,4.50
2022-08-05T12:40:03.640Z,3.90
2022-08-05T12:42:40.174Z,3.90
2022-08-05T12:45:10.475Z,3.90
2022-08-05T12:47:38.541Z,4.40
2022-08-05T12:50:17.117Z,3.50
2022-08-05T12:53:01.201Z,3.60
2022-08-05T12:55:32.626Z,3.30
2022-08-05T13:02:04.443Z,3.20
2022-08-05T13:03:43.144Z,3.00
2022-08-05T13:06:17.661Z,3.20
2022-08-05T13:08:50.819Z,3.10
2022-08-05T13:11:59.760Z,3.30
2022-08-05T13:14:24.870Z,3.20
2022-08-05T13:17:31.408Z,2.90
2022-08-05T13:20:20.371Z,2.90
2022-08-05T13:22:52.584Z,3.50
2022-08-05T13:25:22.218Z,3.20
2022-08-05T13:28:10.590Z,3.10
2022-08-05T13:30:39.053Z,3.30
2022-08-05T13:33:07.476Z,3.20
2022-08-05T13:35:47.637Z,3.20
2022-08-05T13:38:30.459Z,3.00
2022-08-05T13:41:00.187Z,3.40
2022-08-05T13:43:45.377Z,3.30
2022-08-05T13:46:30.858Z,3.20
2022-08-05T13:49:10.387Z,3.20
2022-08-05T13:51:46.451Z,3.80
2022-08-05T13:54:24.815Z,3.20
2022-08-05T13:56:53.875Z,3.30
2022-08-05T13:59:24.818Z,3.50
2022-08-05T14:02:00.405Z,3.70
2022-08-05T14:04:53.724Z,3.90
2022-08-05T14:08:00.138Z,3.50
2022-08-05T14:10:28.442Z,3.20
2022-08-05T14:12:57.550Z,3.40
2022-08-05T14:16:07.072Z,3.50
2022-08-05T14:18:18.189Z,3.50
2022-08-05T14:20:48.351Z,3.80
2022-08-05T14:23:24.009Z,3.90
2022-08-05T14:25:58.629Z,3.20
2022-08-05T14:28:29.125Z,3.40
2022-08-05T14:30:59.013Z,4.00
2022-08-05T14:33:26.866Z,3.50
2022-08-05T14:35:54.937Z,3.30
2022-08-05T14:38:33.242Z,3.70
2022-08-05T14:41:06.357Z,3.60
2022-08-05T14:44:02.083Z,3.50
2022-08-05T14:46:28.945Z,3.50
2022-08-05T14:49:06.266Z,4.40
2022-08-05T14:51:38.987Z,3.70
2022-08-05T14:54:28.367Z,3.80
2022-08-05T14:56:59.017Z,3.10
2022-08-05T14:59:29.329Z,3.50
2022-08-05T15:02:24.867Z,3.30
2022-08-05T15:04:52.906Z,3.60
2022-08-05T15:08:11.201Z,3.20
2022-08-05T15:10:09.802Z,3.80
2022-08-05T15:12:58.008Z,3.30
2022-08-05T15:15:55.222Z,3.50
2022-08-05T15:18:17.317Z,3.40
2022-08-05T15:20:46.027Z,3.30
2022-08-05T15:23:14.839Z,3.60
2022-08-05T15:25:52.205Z,3.90
2022-08-05T15:28:27.300Z,4.10
2022-08-05T15:30:56.760Z,3.80
2022-08-05T15:34:05.214Z,3.20
2022-08-05T15:36:17.278Z,3.80
2022-08-05T15:41:00.359Z,3.40
2022-08-05T15:41:56.191Z,3.80
2022-08-05T15:44:30.262Z,4.00
2022-08-05T15:47:01.770Z,3.60
2022-08-05T15:49:53.275Z,3.40
2022-08-05T15:52:51.751Z,3.40
2022-08-05T15:55:16.268Z,4.00
2022-08-05T15:57:45.813Z,3.60
2022-08-05T16:00:26.297Z,4.20
2022-08-05T16:03:00.795Z,6.00
2022-08-05T16:05:30.273Z,6.80
2022-08-05T16:07:58.616Z,6.60
2022-08-05T16:10:27.993Z,7.00
2022-08-05T16:12:57.128Z,6.90
2022-08-05T16:15:24.935Z,7.20
2022-08-05T16:18:00.616Z,6.50
2022-08-05T16:20:32.422Z,7.10
2022-08-05T16:23:00.906Z,6.80
2022-08-05T16:25:32.140Z,6.70
2022-08-05T16:28:09.749Z,6.90
2022-08-05T16:30:38.383Z,7.30
2022-08-05T16:33:06.721Z,7.20
2022-08-05T16:35:42.967Z,5.80
2022-08-05T16:38:18.360Z,6.40
2022-08-05T16:41:00.231Z,6.40
2022-08-05T16:43:35.031Z,5.10
2022-08-05T16:46:24.623Z,5.40
2022-08-05T16:48:52.868Z,4.60
2022-08-05T16:51:20.800Z,4.60
2022-08-05T16:54:05.025Z,5.20
2022-08-05T16:56:41.745Z,4.40
2022-08-05T16:59:10.430Z,4.50
2022-08-05T17:01:54.364Z,5.00
2022-08-05T17:04:28.210Z,5.20
2022-08-05T17:09:30.258Z,3.70
2022-08-05T17:11:59.369Z,4.00
2022-08-05T17:14:36.876Z,3.90
2022-08-05T17:17:14.305Z,3.50
2022-08-05T17:19:46.104Z,2.80
2022-08-05T17:22:24.791Z,2.90
2022-08-05T17:24:58.781Z,3.50
2022-08-05T17:27:34.239Z,3.40
2022-08-05T17:30:07.102Z,3.60
2022-08-05T17:32:42.004Z,3.20
2022-08-05T17:35:12.232Z,3.60
2022-08-05T17:37:45.420Z,3.60
2022-08-05T17:40:22.622Z,4.00
2022-08-05T17:42:52.921Z,3.80
2022-08-05T17:45:24.979Z,4.30
2022-08-05T17:47:56.107Z,4.00
2022-08-05T17:50:28.475Z,3.70
2022-08-05T17:53:05.128Z,4.20
2022-08-05T17:55:37.170Z,4.30
2022-08-05T17:58:13.376Z,5.00
2022-08-05T18:00:47.519Z,4.70
2022-08-05T18:03:55.953Z,4.80
2022-08-05T18:06:11.346Z,5.00
2022-08-05T18:08:44.518Z,4.30
2022-08-05T18:14:04.414Z,5.50
2022-08-05T18:16:46.806Z,5.20
2022-08-05T18:19:22.924Z,5.00
2022-08-05T18:22:09.520Z,5.00
2022-08-05T18:24:40.089Z,4.50
2022-08-05T18:27:12.612Z,5.10
2022-08-05T18:29:53.584Z,4.40
2022-08-05T18:32:27.820Z,4.90
2022-08-05T18:34:57.831Z,4.50
2022-08-05T18:37:34.696Z,4.70
2022-08-05T18:40:57.471Z,5.20
2022-08-05T18:42:58.829Z,5.70
2022-08-05T18:45:41.649Z,5.50
2022-08-05T18:52:04.543Z,5.90
2022-08-05T18:53:51.711Z,5.40
2022-08-05T18:56:21.678Z,5.70
2022-08-05T18:58:55.018Z,5.90
2022-08-05T19:01:47.830Z,6.00
2022-08-05T19:04:24.154Z,6.10
2022-08-05T19:06:53.458Z,5.70
2022-08-05T19:09:21.858Z,5.60
2022-08-05T19:11:59.828Z,5.90
2022-08-05T19:14:52.397Z,6.40
2022-08-05T19:17:18.485Z,6.00
2022-08-05T19:19:48.709Z,5.80
2022-08-05T19:22:17.729Z,5.90
2022-08-05T19:24:55.952Z,5.90
2022-08-05T19:27:30.499Z,5.70
2022-08-05T19:29:58.935Z,4.80
2022-08-05T19:32:27.929Z,5.10
2022-08-05T19:34:57.924Z,7.80
2022-08-05T19:37:29.848Z,5.90
2022-08-05T19:40:15.670Z,5.30
2022-08-05T19:43:00.932Z,5.10
2022-08-05T19:45:36.265Z,5.30
2022-08-05T19:48:06.222Z,5.10
2022-08-05T19:50:35.053Z,5.20
2022-08-05T19:53:09.332Z,4.60
2022-08-05T19:56:13.829Z,4.00
2022-08-05T19:58:29.557Z,4.40
2022-08-05T20:00:58.833Z,4.50
2022-08-05T20:03:27.498Z,4.60
2022-08-05T20:06:11.712Z,3.90
2022-08-05T20:08:47.570Z,4.20
2022-08-05T20:11:18.146Z,4.60
2022-08-05T20:13:58.744Z,4.30
2022-08-05T20:16:35.393Z,4.70
2022-08-05T20:19:04.024Z,5.40
2022-08-05T20:21:32.212Z,5.10
2022-08-05T20:24:01.167Z,5.20
2022-08-05T20:26:29.456Z,5.00
2022-08-05T20:29:00.513Z,5.00
2022-08-05T20:31:42.855Z,4.70
2022-08-05T20:34:17.083Z,4.60
2022-08-05T20:36:44.868Z,4.40
2022-08-05T20:39:16.713Z,4.60
2022-08-05T20:41:47.742Z,4.70
2022-08-05T20:44:29.842Z,5.20
2022-08-05T20:47:03.132Z,4.90
2022-08-05T20:49:33.296Z,4.80
2022-08-05T20:52:05.909Z,5.80
2022-08-05T20:54:55.114Z,5.70
2022-08-05T20:57:41.745Z,5.40
2022-08-05T21:00:36.386Z,5.70
2022-08-05T21:03:06.800Z,6.00
2022-08-05T21:05:53.709Z,5.60
2022-08-05T21:08:28.005Z,5.80
2022-08-05T21:11:09.950Z,6.60
2022-08-05T21:13:55.840Z,6.00
2022-08-05T21:16:30.013Z,6.80
2022-08-05T21:19:01.063Z,5.20
2022-08-05T21:21:39.240Z,5.50
2022-08-05T21:24:15.571Z,5.80
2022-08-05T21:26:48.591Z,5.70
2022-08-05T21:29:26.582Z,5.90
2022-08-05T21:32:02.828Z,5.70
2022-08-05T21:34:31.614Z,6.70
2022-08-05T21:37:00.969Z,6.00
2022-08-05T21:39:29.971Z,5.70
2022-08-05T21:42:01.184Z,6.40
2022-08-05T21:44:31.968Z,5.90
2022-08-05T21:47:00.333Z,6.30
2022-08-05T21:49:48.195Z,5.90
2022-08-05T21:52:27.009Z,6.00
2022-08-05T21:55:06.029Z,5.80
2022-08-05T21:57:37.590Z,5.90
2022-08-05T22:00:12.778Z,5.10
2022-08-05T22:02:42.718Z,5.70
2022-08-05T22:05:12.279Z,5.90
2022-08-05T22:07:58.176Z,5.70
2022-08-05T22:10:27.992Z,6.10
2022-08-05T22:12:57.852Z,5.50
2022-08-05T22:16:02.690Z,5.50
2022-08-05T22:18:15.534Z,5.50
2022-08-05T22:20:47.415Z,6.00
2022-08-05T22:24:03.359Z,5.80
2022-08-05T22:26:49.763Z,6.30
2022-08-05T22:29:26.632Z,5.70
2022-08-05T22:31:59.472Z,6.60
2022-08-05T22:34:32.680Z,6.30
2022-08-05T22:37:00.993Z,6.00
2022-08-05T22:39:34.534Z,6.20
2022-08-05T22:42:09.219Z,6.60
2022-08-05T22:44:48.552Z,6.70
2022-08-05T22:47:29.115Z,5.70
2022-08-05T22:50:20.285Z,6.70
2022-08-05T22:52:52.607Z,6.40
2022-08-05T22:55:24.411Z,16.10
2022-08-05T22:57:55.010Z,6.50
2022-08-05T23:00:23.793Z,6.50
2022-08-05T23:02:53.538Z,7.10
2022-08-05T23:05:22.876Z,6.80
2022-08-05T23:07:52.021Z,6.10
2022-08-05T23:10:23.577Z,6.10
2022-08-05T23:12:54.284Z,6.50
2022-08-05T23:15:29.849Z,6.80
2022-08-05T23:18:11.373Z,6.60
2022-08-05T23:20:39.837Z,7.30
2022-08-05T23:23:08.819Z,7.30
2022-08-05T23:25:50.869Z,7.30
2022-08-05T23:28:29.168Z,7.10
2022-08-05T23:31:16.656Z,9.30
2022-08-05T23:34:06.178Z,8.40
2022-08-05T23:36:40.274Z,7.20
2022-08-05T23:39:16.605Z,6.60
2022-08-05T23:41:52.322Z,7.20
2022-08-05T23:44:25.005Z,6.30
2022-08-05T23:46:56.072Z,6.70
2022-08-05T23:49:33.964Z,6.40
2022-08-05T23:52:25.302Z,6.60
2022-08-05T23:54:58.661Z,6.80
2022-08-05T23:57:28.262Z,6.10
